createdAt,value
2023-05-06T00:01:37.073Z,1.30
2023-05-06T00:04:03.930Z,1.45
2023-05-06T00:06:30.633Z,1.17
2023-05-06T00:08:57.229Z,1.20
2023-05-06T00:11:23.789Z,1.20
2023-05-06T00:13:50.384Z,1.25
2023-05-06T00:16:17.114Z,1.10
2023-05-06T00:18:43.748Z,1.30
2023-05-06T00:21:10.329Z,1.25
2023-05-06T00:23:36.850Z,1.42
2023-05-06T00:26:03.509Z,1.23
2023-05-06T00:28:30.116Z,1.10
2023-05-06T00:30:56.658Z,1.13
2023-05-06T00:33:23.170Z,1.40
2023-05-06T00:35:49.741Z,1.15
2023-05-06T00:38:16.992Z,1.15
2023-05-06T00:40:43.537Z,1.25
2023-05-06T00:43:10.103Z,1.10
2023-05-06T00:45:37.096Z,1.20
2023-05-06T00:48:06.698Z,1.20
2023-05-06T00:50:34.517Z,0.98
2023-05-06T00:53:03.650Z,1.20
2023-05-06T00:55:31.165Z,1.02
2023-05-06T00:57:58.231Z,1.20
2023-05-06T01:00:25.146Z,1.08
2023-05-06T01:02:51.932Z,1.13
2023-05-06T01:05:22.286Z,1.42
2023-05-06T01:08:06.621Z,1.20
2023-05-06T01:10:40.612Z,1.30
2023-05-06T01:13:21.483Z,1.10
2023-05-06T01:15:53.968Z,0.90
2023-05-06T01:18:26.507Z,0.98
2023-05-06T01:20:56.009Z,1.10
2023-05-06T01:23:22.609Z,1.20
2023-05-06T01:25:49.217Z,1.40
2023-05-06T01:28:15.760Z,1.00
2023-05-06T01:30:48.393Z,1.42
2023-05-06T01:33:24.048Z,1.60
2023-05-06T01:36:21.884Z,1.20
2023-05-06T01:38:51.704Z,1.30
2023-05-06T01:41:19.162Z,1.25
2023-05-06T01:43:49.019Z,1.20
2023-05-06T01:46:19.014Z,1.20
2023-05-06T01:48:47.159Z,1.30
2023-05-06T01:51:13.774Z,1.27
2023-05-06T01:53:40.350Z,1.25
2023-05-06T01:56:07.299Z,1.60
2023-05-06T01:58:33.860Z,1.33
2023-05-06T02:01:00.382Z,1.27
2023-05-06T02:03:27.019Z,1.17
2023-05-06T02:05:53.630Z,1.40
2023-05-06T02:08:20.516Z,1.50
2023-05-06T02:10:47.162Z,1.40
2023-05-06T02:13:13.789Z,1.30
2023-05-06T02:15:40.381Z,1.35
2023-05-06T02:18:07.050Z,1.48
2023-05-06T02:20:33.626Z,1.50
2023-05-06T02:23:00.191Z,1.45
2023-05-06T02:25:26.768Z,2.00
2023-05-06T02:27:53.357Z,1.80
2023-05-06T02:30:20.120Z,1.42
2023-05-06T02:32:47.307Z,1.27
2023-05-06T02:35:13.876Z,1.75
2023-05-06T02:37:40.405Z,1.60
2023-05-06T02:40:08.997Z,1.48
2023-05-06T02:42:35.986Z,1.80
2023-05-06T02:45:02.717Z,1.80
2023-05-06T02:47:29.295Z,1.63
2023-05-06T02:49:55.882Z,1.88
2023-05-06T02:52:22.456Z,1.60
2023-05-06T02:54:48.989Z,1.60
2023-05-06T02:57:15.514Z,1.70
2023-05-06T02:59:42.139Z,1.75
2023-05-06T03:02:08.674Z,1.90
2023-05-06T03:04:35.458Z,1.55
2023-05-06T03:07:02.097Z,1.50
2023-05-06T03:09:28.680Z,1.77
2023-05-06T03:11:56.536Z,1.73
2023-05-06T03:14:23.128Z,1.50
2023-05-06T03:16:49.792Z,1.60
2023-05-06T03:19:16.367Z,1.90
2023-05-06T03:21:43.517Z,1.88
2023-05-06T03:24:10.335Z,2.15
2023-05-06T03:26:37.047Z,1.60
2023-05-06T03:29:03.558Z,2.00
2023-05-06T03:31:30.172Z,1.88
2023-05-06T03:33:56.757Z,2.05
2023-05-06T03:36:25.844Z,1.73
2023-05-06T03:38:52.421Z,1.88
2023-05-06T03:41:18.976Z,1.70
2023-05-06T03:43:45.634Z,1.95
2023-05-06T03:46:12.220Z,1.77
2023-05-06T03:48:38.872Z,1.63
2023-05-06T03:51:05.784Z,2.00
2023-05-06T03:53:32.440Z,2.60
2023-05-06T03:55:59.096Z,2.17
2023-05-06T03:58:25.684Z,2.30
2023-05-06T04:00:52.222Z,2.20
2023-05-06T04:03:18.963Z,2.60
2023-05-06T04:05:46.596Z,2.90
2023-05-06T04:08:13.092Z,2.53
2023-05-06T04:10:40.617Z,2.55
2023-05-06T04:13:07.553Z,2.70
2023-05-06T04:15:35.592Z,2.40
2023-05-06T04:18:02.333Z,2.67
2023-05-06T04:20:29.083Z,3.08
2023-05-06T04:22:55.660Z,2.50
2023-05-06T04:25:22.422Z,2.60
2023-05-06T04:27:48.957Z,2.90
2023-05-06T04:30:15.666Z,2.30
2023-05-06T04:32:42.342Z,2.60
2023-05-06T04:35:09.481Z,2.38
2023-05-06T04:37:36.492Z,2.28
2023-05-06T04:40:04.653Z,3.15
2023-05-06T04:42:32.158Z,3.00
2023-05-06T04:44:59.356Z,3.42
2023-05-06T04:47:26.249Z,3.20
2023-05-06T04:49:52.879Z,3.20
2023-05-06T04:52:19.414Z,3.13
2023-05-06T04:54:46.024Z,2.70
2023-05-06T04:57:12.637Z,1.90
2023-05-06T04:59:39.283Z,2.33
2023-05-06T05:02:05.981Z,1.90
2023-05-06T05:04:32.509Z,2.33
2023-05-06T05:06:59.095Z,2.60
2023-05-06T05:09:25.883Z,2.10
2023-05-06T05:11:52.408Z,2.50
2023-05-06T05:14:19.026Z,2.42
2023-05-06T05:16:45.683Z,2.63
2023-05-06T05:19:12.225Z,2.85
2023-05-06T05:21:39.116Z,2.30
2023-05-06T05:24:05.961Z,2.28
2023-05-06T05:26:32.477Z,2.47
2023-05-06T05:28:59.011Z,2.30
2023-05-06T05:31:25.754Z,2.60
2023-05-06T05:33:52.398Z,2.75
2023-05-06T05:36:19.365Z,3.20
2023-05-06T05:38:47.777Z,3.63
2023-05-06T05:41:16.111Z,3.72
2023-05-06T05:43:43.970Z,3.25
2023-05-06T05:46:10.573Z,3.65
2023-05-06T05:48:39.770Z,4.70
2023-05-06T05:51:06.583Z,4.43
2023-05-06T05:53:33.094Z,4.13
2023-05-06T05:55:59.664Z,5.07
2023-05-06T05:58:26.186Z,4.20
2023-05-06T06:00:52.852Z,3.67
2023-05-06T06:03:19.525Z,3.63
2023-05-06T06:05:46.316Z,4.07
2023-05-06T06:08:13.340Z,4.00
2023-05-06T06:10:39.854Z,3.63
2023-05-06T06:13:06.538Z,4.10
2023-05-06T06:15:33.109Z,3.53
2023-05-06T06:17:59.744Z,3.83
2023-05-06T06:20:26.658Z,3.53
2023-05-06T06:22:53.179Z,3.30
2023-05-06T06:25:20.173Z,3.35
2023-05-06T06:27:46.816Z,2.83
2023-05-06T06:30:13.513Z,2.85
2023-05-06T06:32:54.196Z,2.75
2023-05-06T06:35:20.792Z,2.83
2023-05-06T06:37:47.921Z,2.97
2023-05-06T06:40:15.027Z,2.00
2023-05-06T06:42:41.817Z,3.20
2023-05-06T06:45:10.016Z,2.55
2023-05-06T06:47:36.960Z,2.80
2023-05-06T06:50:03.725Z,2.90
2023-05-06T06:52:30.398Z,2.67
2023-05-06T06:54:56.915Z,2.20
2023-05-06T06:57:23.447Z,2.63
2023-05-06T06:59:52.631Z,2.53
2023-05-06T07:02:22.792Z,3.22
2023-05-06T07:04:49.491Z,3.33
2023-05-06T07:07:16.053Z,2.72
2023-05-06T07:09:44.226Z,3.47
2023-05-06T07:12:11.004Z,3.03
2023-05-06T07:14:37.637Z,3.20
2023-05-06T07:17:04.424Z,3.25
2023-05-06T07:19:33.570Z,3.42
2023-05-06T07:22:00.754Z,3.30
2023-05-06T07:24:27.274Z,3.30
2023-05-06T07:26:53.901Z,3.40
2023-05-06T07:29:20.623Z,2.90
2023-05-06T07:31:47.149Z,3.55
2023-05-06T07:34:13.752Z,3.55
2023-05-06T07:36:40.904Z,3.85
2023-05-06T07:39:07.908Z,3.95
2023-05-06T07:41:34.661Z,3.20
2023-05-06T07:44:01.529Z,3.60
2023-05-06T07:46:28.366Z,2.85
2023-05-06T07:48:55.048Z,2.90
2023-05-06T07:51:21.851Z,2.75
2023-05-06T07:53:48.513Z,2.72
2023-05-06T07:56:15.076Z,2.72
2023-05-06T07:58:41.620Z,2.83
2023-05-06T08:01:08.222Z,2.90
2023-05-06T08:03:35.664Z,2.40
2023-05-06T08:06:02.703Z,2.25
2023-05-06T08:08:29.336Z,2.70
2023-05-06T08:10:57.900Z,2.20
2023-05-06T08:13:25.841Z,2.00
2023-05-06T08:15:53.122Z,2.00
2023-05-06T08:18:22.988Z,2.00
2023-05-06T08:20:50.111Z,2.22
2023-05-06T08:23:16.778Z,2.33
2023-05-06T08:25:43.329Z,3.00
2023-05-06T08:28:09.858Z,3.40
2023-05-06T08:30:36.909Z,3.10
2023-05-06T08:33:03.883Z,2.78
2023-05-06T08:35:30.702Z,2.70
2023-05-06T08:37:57.295Z,2.47
2023-05-06T08:40:27.029Z,2.90
2023-05-06T08:42:56.040Z,2.97
2023-05-06T08:45:23.463Z,2.53
2023-05-06T08:47:50.145Z,3.10
2023-05-06T08:50:16.892Z,3.20
2023-05-06T08:52:43.771Z,2.50
2023-05-06T08:55:10.611Z,3.58
2023-05-06T08:57:37.684Z,3.10
2023-05-06T09:00:05.044Z,2.22
2023-05-06T09:02:31.811Z,3.10
2023-05-06T09:04:59.973Z,2.85
2023-05-06T09:07:26.934Z,2.67
2023-05-06T09:09:53.495Z,2.58
2023-05-06T09:12:20.340Z,2.70
2023-05-06T09:14:50.137Z,2.50
2023-05-06T09:17:24.496Z,1.85
2023-05-06T09:19:53.276Z,1.77
2023-05-06T09:22:32.159Z,1.50
2023-05-06T09:24:59.165Z,2.83
2023-05-06T09:27:28.118Z,11.55
2023-05-06T09:30:06.292Z,2.38
2023-05-06T09:32:33.666Z,2.00
2023-05-06T09:35:01.222Z,5.45
2023-05-06T09:37:28.185Z,1.90
2023-05-06T09:40:00.552Z,2.08
2023-05-06T09:42:29.687Z,5.25
2023-05-06T09:47:42.283Z,8.02
2023-05-06T09:50:09.461Z,3.15
2023-05-06T09:52:37.137Z,2.80
2023-05-06T09:55:04.344Z,1.60
2023-05-06T09:57:32.546Z,1.48
2023-05-06T10:00:01.419Z,2.35
2023-05-06T10:02:29.857Z,1.83
2023-05-06T10:04:57.696Z,1.80
2023-05-06T10:07:28.776Z,2.17
2023-05-06T10:09:58.412Z,3.85
2023-05-06T10:12:26.230Z,2.38
2023-05-06T10:14:53.063Z,3.00
2023-05-06T10:17:27.249Z,1.83
2023-05-06T10:19:59.022Z,2.10
2023-05-06T10:22:46.952Z,2.00
2023-05-06T10:25:32.360Z,2.33
2023-05-06T10:27:59.932Z,2.47
2023-05-06T10:30:28.544Z,1.63
2023-05-06T10:32:57.290Z,2.20
2023-05-06T10:35:32.634Z,1.90
2023-05-06T10:38:02.721Z,2.10
2023-05-06T10:40:29.757Z,1.73
2023-05-06T10:43:24.471Z,1.67
2023-05-06T10:46:01.660Z,1.52
2023-05-06T10:48:29.667Z,1.70
2023-05-06T10:51:21.275Z,1.67
2023-05-06T10:54:07.772Z,1.52
2023-05-06T10:56:54.207Z,1.38
2023-05-06T10:59:22.060Z,1.30
2023-05-06T11:02:07.637Z,1.15
2023-05-06T11:04:34.459Z,1.30
2023-05-06T11:07:15.421Z,1.88
2023-05-06T11:10:02.312Z,1.10
2023-05-06T11:12:52.471Z,1.38
2023-05-06T11:15:26.645Z,1.13
2023-05-06T11:17:55.910Z,1.40
2023-05-06T11:20:24.029Z,1.80
2023-05-06T11:22:50.910Z,1.30
2023-05-06T11:25:41.233Z,1.40
2023-05-06T11:28:15.438Z,1.50
2023-05-06T11:30:43.935Z,1.50
2023-05-06T11:33:19.070Z,1.38
2023-05-06T11:35:46.227Z,1.08
2023-05-06T11:38:12.831Z,1.05
2023-05-06T11:40:41.859Z,1.50
2023-05-06T11:43:15.679Z,1.35
2023-05-06T11:45:46.975Z,1.27
2023-05-06T11:48:14.758Z,1.30
2023-05-06T11:50:48.687Z,1.50
2023-05-06T11:53:19.117Z,1.42
2023-05-06T11:55:46.703Z,1.58
2023-05-06T11:58:16.728Z,1.35
2023-05-06T12:00:54.329Z,1.23
2023-05-06T12:03:21.770Z,1.25
2023-05-06T12:05:49.997Z,1.20
2023-05-06T12:08:27.543Z,1.65
2023-05-06T12:11:00.750Z,1.35
2023-05-06T12:13:28.510Z,1.20
2023-05-06T12:15:56.890Z,1.20
2023-05-06T12:18:24.485Z,1.15
2023-05-06T12:20:54.611Z,1.10
2023-05-06T12:23:22.197Z,1.27
2023-05-06T12:26:04.404Z,1.40
2023-05-06T12:28:32.422Z,1.42
2023-05-06T12:30:59.347Z,1.17
2023-05-06T12:33:26.023Z,1.10
2023-05-06T12:35:54.791Z,1.20
2023-05-06T12:38:21.510Z,1.23
2023-05-06T12:40:54.849Z,1.13
2023-05-06T12:43:32.624Z,1.13
2023-05-06T12:46:07.386Z,1.02
2023-05-06T12:48:34.105Z,1.10
2023-05-06T12:51:16.966Z,1.60
2023-05-06T12:53:43.752Z,1.60
2023-05-06T12:56:10.258Z,1.50
2023-05-06T12:58:38.088Z,1.40
2023-05-06T13:01:04.800Z,1.35
2023-05-06T13:03:31.504Z,1.35
2023-05-06T13:05:58.142Z,1.35
2023-05-06T13:08:24.725Z,1.25
2023-05-06T13:10:51.224Z,1.02
2023-05-06T13:13:17.829Z,1.30
2023-05-06T13:15:44.468Z,1.08
2023-05-06T13:18:11.030Z,1.35
2023-05-06T13:20:37.787Z,1.58
2023-05-06T13:23:04.802Z,1.00
2023-05-06T13:25:31.352Z,1.30
2023-05-06T13:27:57.855Z,1.02
2023-05-06T13:30:24.436Z,1.08
2023-05-06T13:32:51.032Z,1.00
2023-05-06T13:35:17.601Z,1.10
2023-05-06T13:37:44.158Z,0.95
2023-05-06T13:40:11.961Z,1.15
2023-05-06T13:42:39.016Z,1.00
2023-05-06T13:45:06.274Z,0.93
2023-05-06T13:47:32.813Z,1.20
2023-05-06T13:49:59.492Z,1.35
2023-05-06T13:52:26.298Z,1.10
2023-05-06T13:54:52.824Z,1.15
2023-05-06T13:59:46.146Z,0.80
2023-05-06T14:02:13.420Z,0.80
2023-05-06T14:04:40.254Z,0.70
2023-05-06T14:07:06.807Z,0.90
2023-05-06T14:09:33.363Z,1.00
2023-05-06T14:11:59.919Z,1.05
2023-05-06T14:14:27.466Z,0.90
2023-05-06T14:16:55.594Z,1.35
2023-05-06T14:19:22.232Z,0.82
2023-05-06T14:21:48.807Z,0.88
2023-05-06T14:24:15.343Z,0.82
2023-05-06T14:26:42.730Z,1.00
2023-05-06T14:29:09.359Z,0.75
2023-05-06T14:31:35.995Z,0.82
2023-05-06T14:34:02.910Z,0.60
2023-05-06T14:36:29.478Z,1.10
2023-05-06T14:38:56.216Z,0.98
2023-05-06T14:41:22.811Z,1.00
2023-05-06T14:43:49.340Z,0.70
2023-05-06T14:46:16.343Z,1.10
2023-05-06T14:48:43.424Z,0.60
2023-05-06T14:51:09.977Z,0.80
2023-05-06T14:53:36.636Z,1.00
2023-05-06T14:56:03.181Z,0.85
2023-05-06T14:58:29.760Z,0.95
2023-05-06T15:00:57.040Z,0.80
2023-05-06T15:03:23.676Z,0.80
2023-05-06T15:05:51.065Z,1.00
2023-05-06T15:08:17.757Z,0.80
2023-05-06T15:10:44.421Z,0.80
2023-05-06T15:13:11.044Z,0.95
2023-05-06T15:15:37.733Z,0.80
2023-05-06T15:18:04.481Z,1.00
2023-05-06T15:20:31.156Z,0.98
2023-05-06T15:22:57.716Z,0.80
2023-05-06T15:25:34.060Z,0.68
2023-05-06T15:28:02.459Z,0.98
2023-05-06T15:30:29.005Z,3.90
2023-05-06T15:32:55.600Z,1.23
2023-05-06T15:35:22.312Z,1.45
2023-05-06T15:37:48.834Z,0.98
2023-05-06T15:40:15.454Z,0.82
2023-05-06T15:42:42.094Z,0.70
2023-05-06T15:45:09.079Z,1.15
2023-05-06T15:47:35.698Z,0.93
2023-05-06T15:50:06.829Z,0.82
2023-05-06T15:52:37.770Z,0.75
2023-05-06T15:55:05.130Z,0.70
2023-05-06T15:57:31.848Z,1.05
2023-05-06T15:59:58.423Z,1.00
2023-05-06T16:02:27.256Z,0.68
2023-05-06T16:04:54.763Z,0.73
2023-05-06T16:07:21.523Z,0.93
2023-05-06T16:09:48.054Z,0.90
2023-05-06T16:12:14.771Z,0.95
2023-05-06T16:14:41.387Z,1.00
2023-05-06T16:17:08.026Z,0.98
2023-05-06T16:19:35.165Z,0.63
2023-05-06T16:22:02.490Z,0.95
2023-05-06T16:24:29.078Z,0.82
2023-05-06T16:26:55.943Z,0.90
2023-05-06T16:29:23.021Z,0.90
2023-05-06T16:31:49.666Z,1.17
2023-05-06T16:34:16.357Z,1.45
2023-05-06T16:36:43.719Z,3.15
2023-05-06T16:39:10.296Z,1.08
2023-05-06T16:41:36.823Z,0.88
2023-05-06T16:44:03.395Z,2.35
2023-05-06T16:46:30.098Z,1.20
2023-05-06T16:48:56.649Z,1.25
2023-05-06T16:51:23.266Z,0.85
2023-05-06T16:53:49.970Z,1.10
2023-05-06T16:56:16.822Z,0.82
2023-05-06T16:58:43.567Z,1.13
2023-05-06T17:01:11.321Z,0.90
2023-05-06T17:03:38.260Z,1.00
2023-05-06T17:06:05.342Z,1.27
2023-05-06T17:08:36.006Z,0.80
2023-05-06T17:11:06.828Z,1.00
2023-05-06T17:13:33.973Z,1.10
2023-05-06T17:16:00.911Z,1.02
2023-05-06T17:18:27.498Z,0.98
2023-05-06T17:20:56.396Z,1.00
2023-05-06T17:23:24.237Z,1.05
2023-05-06T17:25:51.355Z,0.98
2023-05-06T17:28:18.821Z,1.60
2023-05-06T17:30:45.922Z,1.40
2023-05-06T17:33:12.944Z,1.10
2023-05-06T17:35:39.711Z,0.90
2023-05-06T17:38:06.251Z,0.98
2023-05-06T17:40:32.836Z,1.00
2023-05-06T17:42:59.445Z,1.20
2023-05-06T17:45:26.934Z,1.10
2023-05-06T17:47:53.638Z,1.60
2023-05-06T17:50:20.404Z,1.67
2023-05-06T17:52:50.718Z,1.50
2023-05-06T17:55:17.814Z,1.38
2023-05-06T17:57:44.536Z,1.23
2023-05-06T18:00:11.731Z,1.35
2023-05-06T18:02:38.692Z,1.63
2023-05-06T18:05:06.492Z,1.65
2023-05-06T18:07:33.204Z,1.73
2023-05-06T18:09:59.874Z,1.60
2023-05-06T18:12:26.437Z,1.55
2023-05-06T18:14:53.186Z,1.83
2023-05-06T18:17:19.753Z,1.90
2023-05-06T18:19:46.251Z,1.80
2023-05-06T18:22:13.145Z,2.00
2023-05-06T18:24:39.779Z,1.92
2023-05-06T18:27:06.307Z,1.55
2023-05-06T18:29:34.755Z,1.60
2023-05-06T18:32:01.719Z,1.70
2023-05-06T18:34:28.386Z,1.83
2023-05-06T18:36:55.000Z,1.92
2023-05-06T18:39:23.650Z,1.80
2023-05-06T18:41:50.245Z,1.70
2023-05-06T18:44:16.778Z,1.70
2023-05-06T18:46:43.355Z,1.40
2023-05-06T18:49:09.966Z,1.80
2023-05-06T18:51:36.913Z,1.90
2023-05-06T18:54:03.533Z,1.75
2023-05-06T18:56:30.093Z,1.60
2023-05-06T18:58:57.266Z,1.52
2023-05-06T19:01:25.149Z,1.85
2023-05-06T19:03:54.389Z,1.67
2023-05-06T19:06:20.958Z,2.10
2023-05-06T19:08:47.593Z,2.70
2023-05-06T19:11:21.198Z,4.88
2023-05-06T19:13:47.769Z,3.22
2023-05-06T19:16:14.331Z,2.88
2023-05-06T19:18:41.041Z,2.60
2023-05-06T19:21:12.555Z,2.50
2023-05-06T19:23:39.526Z,2.33
2023-05-06T19:26:07.178Z,2.40
2023-05-06T19:28:34.410Z,2.00
2023-05-06T19:31:01.147Z,2.10
2023-05-06T19:33:27.703Z,2.10
2023-05-06T19:35:54.258Z,1.75
2023-05-06T19:38:21.333Z,1.98
2023-05-06T19:40:47.966Z,1.83
2023-05-06T19:43:14.690Z,1.70
2023-05-06T19:45:41.869Z,2.00
2023-05-06T19:48:08.723Z,1.60
2023-05-06T19:50:35.537Z,1.90
2023-05-06T19:53:03.318Z,1.80
2023-05-06T19:55:29.888Z,2.03
2023-05-06T19:57:56.993Z,1.80
2023-05-06T20:00:25.533Z,1.95
2023-05-06T20:02:52.181Z,2.30
2023-05-06T20:05:18.899Z,2.78
2023-05-06T20:07:45.892Z,2.22
2023-05-06T20:10:13.654Z,1.90
2023-05-06T20:12:43.585Z,1.90
2023-05-06T20:15:10.668Z,2.17
2023-05-06T20:17:37.573Z,2.03
2023-05-06T20:20:09.518Z,1.80
2023-05-06T20:22:40.038Z,1.70
2023-05-06T20:25:17.515Z,1.63
2023-05-06T20:27:45.241Z,1.90
2023-05-06T20:30:12.355Z,2.13
2023-05-06T20:32:40.458Z,2.05
2023-05-06T20:35:07.837Z,2.08
2023-05-06T20:37:35.402Z,2.10
2023-05-06T20:40:04.747Z,1.92
2023-05-06T20:42:31.965Z,2.08
2023-05-06T20:44:58.990Z,1.80
2023-05-06T20:47:25.690Z,2.20
2023-05-06T20:49:52.286Z,2.10
2023-05-06T20:52:18.948Z,2.17
2023-05-06T20:54:45.756Z,2.20
2023-05-06T20:57:14.245Z,1.98
2023-05-06T20:59:41.106Z,1.98
2023-05-06T21:02:07.881Z,1.92
2023-05-06T21:04:34.522Z,1.83
2023-05-06T21:07:01.210Z,2.10
2023-05-06T21:09:28.673Z,2.00
2023-05-06T21:11:55.997Z,2.22
2023-05-06T21:14:24.956Z,2.22
2023-05-06T21:16:52.146Z,1.92
2023-05-06T21:19:19.367Z,1.85
2023-05-06T21:21:45.980Z,2.10
2023-05-06T21:24:13.056Z,2.25
2023-05-06T21:26:40.011Z,2.38
2023-05-06T21:29:06.659Z,2.30
2023-05-06T21:31:33.421Z,2.22
2023-05-06T21:34:00.160Z,2.13
2023-05-06T21:36:27.296Z,2.30
2023-05-06T21:39:06.588Z,2.30
2023-05-06T21:41:35.483Z,2.08
2023-05-06T21:44:03.317Z,2.42
2023-05-06T21:46:30.166Z,2.38
2023-05-06T21:48:57.003Z,2.22
2023-05-06T21:51:23.605Z,2.10
2023-05-06T21:53:50.868Z,2.10
2023-05-06T21:56:18.437Z,1.75
2023-05-06T21:58:45.092Z,2.30
2023-05-06T22:01:11.853Z,2.15
2023-05-06T22:03:38.654Z,2.10
2023-05-06T22:06:06.007Z,2.10
2023-05-06T22:08:32.653Z,2.20
2023-05-06T22:10:59.193Z,2.22
2023-05-06T22:13:27.094Z,2.35
2023-05-06T22:15:53.978Z,2.13
2023-05-06T22:18:20.603Z,2.28
2023-05-06T22:20:49.234Z,2.00
2023-05-06T22:23:15.887Z,2.22
2023-05-06T22:25:42.420Z,2.17
2023-05-06T22:28:08.947Z,2.10
2023-05-06T22:30:35.685Z,2.00
2023-05-06T22:33:02.240Z,2.20
2023-05-06T22:35:28.880Z,2.25
2023-05-06T22:37:55.391Z,2.30
2023-05-06T22:40:21.904Z,2.00
2023-05-06T22:42:48.478Z,1.90
2023-05-06T22:45:15.084Z,1.80
2023-05-06T22:47:41.686Z,2.20
2023-05-06T22:50:08.963Z,1.70
2023-05-06T22:52:35.520Z,2.13
2023-05-06T22:55:02.243Z,2.40
2023-05-06T22:57:28.859Z,1.77
2023-05-06T22:59:55.574Z,2.20
2023-05-06T23:02:22.132Z,1.95
2023-05-06T23:04:48.698Z,2.10
2023-05-06T23:07:15.768Z,1.52
2023-05-06T23:09:42.337Z,1.70
2023-05-06T23:12:08.915Z,2.13
2023-05-06T23:14:35.558Z,2.53
2023-05-06T23:17:02.100Z,1.88
2023-05-06T23:19:28.679Z,2.05
2023-05-06T23:21:55.252Z,2.10
2023-05-06T23:24:21.802Z,2.03
2023-05-06T23:26:48.322Z,1.77
2023-05-06T23:29:14.943Z,1.98
2023-05-06T23:31:41.438Z,2.22
2023-05-06T23:34:08.103Z,1.92
2023-05-06T23:36:34.719Z,2.10
2023-05-06T23:39:01.252Z,2.10
2023-05-06T23:41:27.799Z,2.22
2023-05-06T23:43:54.296Z,2.15
2023-05-06T23:46:20.935Z,2.20
2023-05-06T23:48:47.602Z,2.05
2023-05-06T23:51:14.103Z,2.30
2023-05-06T23:53:41.025Z,2.08
2023-05-06T23:56:07.741Z,1.90
2023-05-06T23:58:34.269Z,2.20
